sensor_id;sensor_type;location;lat;lon;timestamp;pressure;altitude;pressure_sealevel;temperature;humidity
17785;BME280;9016;53.582;10.062;2023-05-24T00:00:31;101901.75;;;12.76;61.78
17785;BME280;9016;53.582;10.062;2023-05-24T00:02:59;101895.59;;;12.74;62.68
17785;BME280;9016;53.582;10.062;2023-05-24T00:05:31;101889.88;;;12.81;62.80
17785;BME280;9016;53.582;10.062;2023-05-24T00:08:03;101888.81;;;12.84;61.83
17785;BME280;9016;53.582;10.062;2023-05-24T00:10:31;101891.44;;;12.68;62.70
17785;BME280;9016;53.582;10.062;2023-05-24T00:13:01;101890.00;;;12.78;62.56
17785;BME280;9016;53.582;10.062;2023-05-24T00:15:29;101864.28;;;12.59;62.65
17785;BME280;9016;53.582;10.062;2023-05-24T00:17:57;101881.19;;;12.76;62.92
17785;BME280;9016;53.582;10.062;2023-05-24T00:20:25;101882.84;;;12.79;62.91
17785;BME280;9016;53.582;10.062;2023-05-24T00:22:55;101880.75;;;12.85;62.95
17785;BME280;9016;53.582;10.062;2023-05-24T00:25:23;101875.63;;;12.81;62.77
17785;BME280;9016;53.582;10.062;2023-05-24T00:27:51;101885.63;;;12.94;62.49
17785;BME280;9016;53.582;10.062;2023-05-24T00:30:19;101882.25;;;13.08;62.74
17785;BME280;9016;53.582;10.062;2023-05-24T00:32:47;101882.09;;;13.11;62.40
17785;BME280;9016;53.582;10.062;2023-05-24T00:35:15;101875.09;;;13.09;62.05
17785;BME280;9016;53.582;10.062;2023-05-24T00:37:43;101873.81;;;13.16;62.40
17785;BME280;9016;53.582;10.062;2023-05-24T00:40:13;101864.16;;;13.13;61.94
17785;BME280;9016;53.582;10.062;2023-05-24T00:42:41;101876.56;;;13.14;62.27
17785;BME280;9016;53.582;10.062;2023-05-24T00:45:10;101869.72;;;13.09;62.47
17785;BME280;9016;53.582;10.062;2023-05-24T00:47:39;101866.75;;;13.15;62.14
17785;BME280;9016;53.582;10.062;2023-05-24T00:50:08;101866.25;;;13.24;62.13
17785;BME280;9016;53.582;10.062;2023-05-24T00:52:39;101865.78;;;13.16;61.74
17785;BME280;9016;53.582;10.062;2023-05-24T00:55:09;101867.03;;;12.91;62.44
17785;BME280;9016;53.582;10.062;2023-05-24T00:57:38;101867.69;;;12.97;62.44
17785;BME280;9016;53.582;10.062;2023-05-24T01:00:08;101861.09;;;13.04;62.69
17785;BME280;9016;53.582;10.062;2023-05-24T01:02:37;101859.47;;;13.00;62.71
17785;BME280;9016;53.582;10.062;2023-05-24T01:05:06;101854.78;;;13.05;62.80
17785;BME280;9016;53.582;10.062;2023-05-24T01:07:40;101859.03;;;13.09;62.67
17785;BME280;9016;53.582;10.062;2023-05-24T01:10:16;101856.66;;;13.03;63.46
17785;BME280;9016;53.582;10.062;2023-05-24T01:12:54;101852.19;;;13.03;63.17
17785;BME280;9016;53.582;10.062;2023-05-24T01:15:27;101850.69;;;13.15;63.05
17785;BME280;9016;53.582;10.062;2023-05-24T01:18:03;101847.13;;;12.97;63.61
17785;BME280;9016;53.582;10.062;2023-05-24T01:20:33;101845.97;;;13.03;63.61
17785;BME280;9016;53.582;10.062;2023-05-24T01:23:14;101850.91;;;13.10;63.02
17785;BME280;9016;53.582;10.062;2023-05-24T01:26:11;101841.63;;;13.00;63.92
17785;BME280;9016;53.582;10.062;2023-05-24T01:28:46;101846.66;;;13.06;63.63
17785;BME280;9016;53.582;10.062;2023-05-24T01:31:19;101850.38;;;13.04;63.93
17785;BME280;9016;53.582;10.062;2023-05-24T01:33:51;101851.94;;;12.90;64.40
17785;BME280;9016;53.582;10.062;2023-05-24T01:36:21;101845.50;;;12.94;64.68
17785;BME280;9016;53.582;10.062;2023-05-24T01:38:50;101850.91;;;12.93;64.53
17785;BME280;9016;53.582;10.062;2023-05-24T01:41:30;101841.06;;;12.93;64.61
17785;BME280;9016;53.582;10.062;2023-05-24T01:44:09;101843.66;;;12.95;64.77
17785;BME280;9016;53.582;10.062;2023-05-24T01:46:41;101846.59;;;12.90;64.69
17785;BME280;9016;53.582;10.062;2023-05-24T01:49:17;101849.56;;;12.84;65.09
17785;BME280;9016;53.582;10.062;2023-05-24T01:51:52;101849.56;;;12.84;65.70
17785;BME280;9016;53.582;10.062;2023-05-24T01:54:22;101847.91;;;12.82;65.66
17785;BME280;9016;53.582;10.062;2023-05-24T01:56:53;101843.75;;;12.76;65.71
17785;BME280;9016;53.582;10.062;2023-05-24T01:59:25;101842.13;;;12.91;66.00
17785;BME280;9016;53.582;10.062;2023-05-24T02:01:55;101845.50;;;12.94;65.75
17785;BME280;9016;53.582;10.062;2023-05-24T02:04:24;101846.00;;;13.01;65.30
17785;BME280;9016;53.582;10.062;2023-05-24T02:06:52;101836.84;;;13.07;65.34
17785;BME280;9016;53.582;10.062;2023-05-24T02:09:20;101847.22;;;13.13;65.33
17785;BME280;9016;53.582;10.062;2023-05-24T02:11:48;101842.28;;;13.05;65.49
17785;BME280;9016;53.582;10.062;2023-05-24T02:14:16;101837.63;;;13.09;65.41
17785;BME280;9016;53.582;10.062;2023-05-24T02:16:47;101850.13;;;13.08;65.11
17785;BME280;9016;53.582;10.062;2023-05-24T02:19:16;101850.66;;;12.98;65.62
17785;BME280;9016;53.582;10.062;2023-05-24T02:21:44;101853.13;;;13.02;65.82
17785;BME280;9016;53.582;10.062;2023-05-24T02:24:12;101849.44;;;13.05;65.75
17785;BME280;9016;53.582;10.062;2023-05-24T02:26:40;101849.19;;;13.09;65.48
17785;BME280;9016;53.582;10.062;2023-05-24T02:29:08;101837.53;;;13.10;65.60
17785;BME280;9016;53.582;10.062;2023-05-24T02:31:36;101843.06;;;13.07;65.68
17785;BME280;9016;53.582;10.062;2023-05-24T02:34:06;101841.38;;;13.22;65.50
17785;BME280;9016;53.582;10.062;2023-05-24T02:36:34;101847.59;;;13.22;65.40
17785;BME280;9016;53.582;10.062;2023-05-24T02:39:05;101840.59;;;13.20;65.29
17785;BME280;9016;53.582;10.062;2023-05-24T02:41:33;101847.75;;;13.19;65.51
17785;BME280;9016;53.582;10.062;2023-05-24T02:44:01;101852.66;;;13.11;66.04
17785;BME280;9016;53.582;10.062;2023-05-24T02:46:29;101849.81;;;13.14;66.02
17785;BME280;9016;53.582;10.062;2023-05-24T02:48:58;101838.31;;;13.12;66.01
17785;BME280;9016;53.582;10.062;2023-05-24T02:51:27;101844.97;;;13.21;65.55
17785;BME280;9016;53.582;10.062;2023-05-24T02:53:55;101841.69;;;13.16;66.09
17785;BME280;9016;53.582;10.062;2023-05-24T02:56:24;101838.78;;;13.20;66.77
17785;BME280;9016;53.582;10.062;2023-05-24T02:58:57;101843.78;;;13.26;65.81
17785;BME280;9016;53.582;10.062;2023-05-24T03:01:26;101839.78;;;13.35;66.09
17785;BME280;9016;53.582;10.062;2023-05-24T03:03:55;101841.25;;;13.40;65.76
17785;BME280;9016;53.582;10.062;2023-05-24T03:06:23;101840.69;;;13.34;66.30
17785;BME280;9016;53.582;10.062;2023-05-24T03:08:53;101838.38;;;13.28;66.82
17785;BME280;9016;53.582;10.062;2023-05-24T03:11:21;101836.09;;;13.20;67.50
17785;BME280;9016;53.582;10.062;2023-05-24T03:13:49;101838.53;;;13.25;67.41
17785;BME280;9016;53.582;10.062;2023-05-24T03:16:18;101830.78;;;13.36;67.49
17785;BME280;9016;53.582;10.062;2023-05-24T03:18:46;101831.13;;;13.30;67.43
17785;BME280;9016;53.582;10.062;2023-05-24T03:21:16;101827.59;;;13.29;67.36
17785;BME280;9016;53.582;10.062;2023-05-24T03:23:48;101825.31;;;13.22;67.63
17785;BME280;9016;53.582;10.062;2023-05-24T03:26:19;101824.34;;;13.23;68.10
17785;BME280;9016;53.582;10.062;2023-05-24T03:28:47;101824.31;;;13.24;68.15
17785;BME280;9016;53.582;10.062;2023-05-24T03:31:16;101829.00;;;13.19;68.71
17785;BME280;9016;53.582;10.062;2023-05-24T03:33:47;101828.22;;;13.17;68.89
17785;BME280;9016;53.582;10.062;2023-05-24T03:36:15;101822.34;;;13.11;69.18
17785;BME280;9016;53.582;10.062;2023-05-24T03:38:43;101828.16;;;13.19;69.67
17785;BME280;9016;53.582;10.062;2023-05-24T03:41:11;101832.78;;;13.15;69.84
17785;BME280;9016;53.582;10.062;2023-05-24T03:43:41;101825.63;;;13.16;70.24
17785;BME280;9016;53.582;10.062;2023-05-24T03:46:15;101827.72;;;13.26;70.68
17785;BME280;9016;53.582;10.062;2023-05-24T03:48:43;101837.19;;;13.33;70.31
17785;BME280;9016;53.582;10.062;2023-05-24T03:51:13;101836.53;;;13.28;70.02
17785;BME280;9016;53.582;10.062;2023-05-24T03:53:41;101836.03;;;13.22;70.84
17785;BME280;9016;53.582;10.062;2023-05-24T03:56:09;101844.44;;;13.31;70.66
17785;BME280;9016;53.582;10.062;2023-05-24T03:58:38;101840.47;;;13.38;70.49
17785;BME280;9016;53.582;10.062;2023-05-24T04:01:07;101846.34;;;13.45;70.24
17785;BME280;9016;53.582;10.062;2023-05-24T04:03:55;101849.78;;;13.47;70.35
17785;BME280;9016;53.582;10.062;2023-05-24T04:06:23;101848.41;;;13.40;70.58
17785;BME280;9016;53.582;10.062;2023-05-24T04:08:54;101840.56;;;13.37;71.48
17785;BME280;9016;53.582;10.062;2023-05-24T04:11:23;101837.88;;;13.37;71.52
17785;BME280;9016;53.582;10.062;2023-05-24T04:13:54;101834.22;;;13.22;72.66
17785;BME280;9016;53.582;10.062;2023-05-24T04:16:24;101843.88;;;13.25;73.53
17785;BME280;9016;53.582;10.062;2023-05-24T04:18:53;101838.09;;;13.17;73.90
17785;BME280;9016;53.582;10.062;2023-05-24T04:21:21;101839.97;;;13.15;74.45
17785;BME280;9016;53.582;10.062;2023-05-24T04:23:50;101838.88;;;13.19;74.25
17785;BME280;9016;53.582;10.062;2023-05-24T04:26:18;101841.28;;;13.23;74.96
17785;BME280;9016;53.582;10.062;2023-05-24T04:28:46;101839.84;;;13.33;74.83
17785;BME280;9016;53.582;10.062;2023-05-24T04:31:15;101840.56;;;13.52;73.96
17785;BME280;9016;53.582;10.062;2023-05-24T04:33:44;101846.28;;;13.62;73.97
17785;BME280;9016;53.582;10.062;2023-05-24T04:36:13;101842.41;;;13.52;74.72
17785;BME280;9016;53.582;10.062;2023-05-24T04:38:41;101848.50;;;13.54;75.00
17785;BME280;9016;53.582;10.062;2023-05-24T04:41:11;101856.41;;;13.57;75.77
17785;BME280;9016;53.582;10.062;2023-05-24T04:43:40;101850.94;;;13.58;75.72
17785;BME280;9016;53.582;10.062;2023-05-24T04:46:09;101863.22;;;13.62;76.24
17785;BME280;9016;53.582;10.062;2023-05-24T04:48:37;101867.09;;;13.57;75.77
17785;BME280;9016;53.582;10.062;2023-05-24T04:51:07;101868.69;;;13.61;76.57
17785;BME280;9016;53.582;10.062;2023-05-24T04:53:35;101866.84;;;13.61;76.62
17785;BME280;9016;53.582;10.062;2023-05-24T04:56:04;101866.22;;;13.56;77.15
17785;BME280;9016;53.582;10.062;2023-05-24T04:58:32;101865.63;;;13.51;77.73
17785;BME280;9016;53.582;10.062;2023-05-24T05:01:02;101870.81;;;13.54;78.50
17785;BME280;9016;53.582;10.062;2023-05-24T05:03:30;101867.47;;;13.66;77.93
17785;BME280;9016;53.582;10.062;2023-05-24T05:05:58;101874.03;;;13.61;78.20
17785;BME280;9016;53.582;10.062;2023-05-24T05:08:31;101877.63;;;13.60;78.53
17785;BME280;9016;53.582;10.062;2023-05-24T05:10:59;101875.25;;;13.71;78.04
17785;BME280;9016;53.582;10.062;2023-05-24T05:13:28;101883.72;;;13.79;77.35
17785;BME280;9016;53.582;10.062;2023-05-24T05:15:56;101881.13;;;13.77;78.02
17785;BME280;9016;53.582;10.062;2023-05-24T05:18:24;101888.13;;;13.80;77.99
17785;BME280;9016;53.582;10.062;2023-05-24T05:20:52;101887.53;;;13.75;78.01
17785;BME280;9016;53.582;10.062;2023-05-24T05:23:20;101895.66;;;13.73;78.20
17785;BME280;9016;53.582;10.062;2023-05-24T05:25:49;101888.97;;;13.65;78.00
17785;BME280;9016;53.582;10.062;2023-05-24T05:28:17;101893.84;;;13.74;78.57
17785;BME280;9016;53.582;10.062;2023-05-24T05:30:45;101887.63;;;13.73;77.98
17785;BME280;9016;53.582;10.062;2023-05-24T05:33:14;101876.09;;;13.71;78.30
17785;BME280;9016;53.582;10.062;2023-05-24T05:35:42;101888.13;;;13.80;78.36
17785;BME280;9016;53.582;10.062;2023-05-24T05:38:10;101879.25;;;13.79;78.86
17785;BME280;9016;53.582;10.062;2023-05-24T05:40:38;101888.75;;;13.85;77.91
17785;BME280;9016;53.582;10.062;2023-05-24T05:43:08;101885.28;;;13.99;77.99
17785;BME280;9016;53.582;10.062;2023-05-24T05:45:36;101883.84;;;14.09;76.93
17785;BME280;9016;53.582;10.062;2023-05-24T05:48:05;101895.25;;;14.12;77.31
17785;BME280;9016;53.582;10.062;2023-05-24T05:50:33;101901.28;;;14.16;76.35
17785;BME280;9016;53.582;10.062;2023-05-24T05:53:01;101904.75;;;14.18;76.62
17785;BME280;9016;53.582;10.062;2023-05-24T05:55:29;101901.97;;;14.19;76.64
17785;BME280;9016;53.582;10.062;2023-05-24T05:57:57;101906.84;;;14.13;76.68
17785;BME280;9016;53.582;10.062;2023-05-24T06:00:26;101905.97;;;14.12;76.88
17785;BME280;9016;53.582;10.062;2023-05-24T06:02:55;101910.09;;;14.02;76.78
17785;BME280;9016;53.582;10.062;2023-05-24T06:05:23;101916.84;;;13.93;77.28
17785;BME280;9016;53.582;10.062;2023-05-24T06:07:51;101921.16;;;13.80;77.79
17785;BME280;9016;53.582;10.062;2023-05-24T06:10:19;101923.59;;;14.01;77.72
17785;BME280;9016;53.582;10.062;2023-05-24T06:12:46;101922.56;;;14.03;77.77
17785;BME280;9016;53.582;10.062;2023-05-24T06:15:14;101928.63;;;14.07;77.53
17785;BME280;9016;53.582;10.062;2023-05-24T06:17:49;101934.16;;;14.19;76.62
17785;BME280;9016;53.582;10.062;2023-05-24T06:20:18;101923.25;;;14.22;77.29
17785;BME280;9016;53.582;10.062;2023-05-24T06:22:46;101921.03;;;14.30;76.27
17785;BME280;9016;53.582;10.062;2023-05-24T06:25:16;101924.66;;;14.45;75.84
17785;BME280;9016;53.582;10.062;2023-05-24T06:27:46;101923.09;;;14.56;75.64
17785;BME280;9016;53.582;10.062;2023-05-24T06:30:14;101927.03;;;14.65;74.83
17785;BME280;9016;53.582;10.062;2023-05-24T06:32:42;101930.25;;;14.71;74.57
17785;BME280;9016;53.582;10.062;2023-05-24T06:35:12;101935.94;;;14.81;73.79
17785;BME280;9016;53.582;10.062;2023-05-24T06:37:40;101947.84;;;14.91;73.63
17785;BME280;9016;53.582;10.062;2023-05-24T06:40:09;101946.19;;;14.88;73.49
17785;BME280;9016;53.582;10.062;2023-05-24T06:42:38;101946.28;;;15.03;73.07
17785;BME280;9016;53.582;10.062;2023-05-24T06:45:07;101949.63;;;15.06;73.02
17785;BME280;9016;53.582;10.062;2023-05-24T06:47:36;101954.47;;;15.15;72.90
17785;BME280;9016;53.582;10.062;2023-05-24T06:50:05;101963.00;;;15.22;73.02
17785;BME280;9016;53.582;10.062;2023-05-24T06:52:35;101964.84;;;15.35;72.43
17785;BME280;9016;53.582;10.062;2023-05-24T06:55:04;101969.09;;;15.39;72.52
17785;BME280;9016;53.582;10.062;2023-05-24T06:57:32;101961.28;;;15.64;70.41
17785;BME280;9016;53.582;10.062;2023-05-24T07:00:00;101971.28;;;15.76;69.88
17785;BME280;9016;53.582;10.062;2023-05-24T07:02:30;101966.81;;;16.18;68.79
17785;BME280;9016;53.582;10.062;2023-05-24T07:04:58;101969.63;;;16.30;67.42
17785;BME280;9016;53.582;10.062;2023-05-24T07:07:26;101970.47;;;16.31;66.92
17785;BME280;9016;53.582;10.062;2023-05-24T07:09:56;101972.22;;;16.18;67.23
17785;BME280;9016;53.582;10.062;2023-05-24T07:12:24;101971.75;;;16.11;66.83
17785;BME280;9016;53.582;10.062;2023-05-24T07:14:52;101978.34;;;16.20;65.79
17785;BME280;9016;53.582;10.062;2023-05-24T07:17:22;101979.63;;;16.14;64.83
17785;BME280;9016;53.582;10.062;2023-05-24T07:19:50;101975.41;;;15.96;65.91
17785;BME280;9016;53.582;10.062;2023-05-24T07:22:18;101978.97;;;15.97;66.19
17785;BME280;9016;53.582;10.062;2023-05-24T07:24:46;101975.31;;;16.12;66.36
17785;BME280;9016;53.582;10.062;2023-05-24T07:27:15;101967.44;;;15.95;65.14
17785;BME280;9016;53.582;10.062;2023-05-24T07:29:43;101973.69;;;15.95;65.57
17785;BME280;9016;53.582;10.062;2023-05-24T07:32:14;101979.16;;;16.08;65.73
17785;BME280;9016;53.582;10.062;2023-05-24T07:34:42;101971.56;;;16.00;65.68
17785;BME280;9016;53.582;10.062;2023-05-24T07:37:10;101969.84;;;15.99;65.66
17785;BME280;9016;53.582;10.062;2023-05-24T07:39:38;101977.31;;;15.94;65.39
17785;BME280;9016;53.582;10.062;2023-05-24T07:42:06;101984.06;;;15.87;65.89
17785;BME280;9016;53.582;10.062;2023-05-24T07:44:36;101990.09;;;15.76;66.41
17785;BME280;9016;53.582;10.062;2023-05-24T07:47:04;101992.16;;;15.43;67.03
17785;BME280;9016;53.582;10.062;2023-05-24T07:49:32;101995.22;;;15.51;67.45
17785;BME280;9016;53.582;10.062;2023-05-24T07:52:00;101992.06;;;15.45;68.23
17785;BME280;9016;53.582;10.062;2023-05-24T07:54:30;101996.31;;;15.49;68.35
17785;BME280;9016;53.582;10.062;2023-05-24T07:56:58;101996.75;;;15.41;68.33
17785;BME280;9016;53.582;10.062;2023-05-24T07:59:28;102006.38;;;15.30;69.37
17785;BME280;9016;53.582;10.062;2023-05-24T08:01:57;102004.16;;;15.22;70.35
17785;BME280;9016;53.582;10.062;2023-05-24T08:04:30;102011.44;;;15.20;70.89
17785;BME280;9016;53.582;10.062;2023-05-24T08:06:58;102003.47;;;15.19;72.37
17785;BME280;9016;53.582;10.062;2023-05-24T08:09:27;102010.03;;;15.29;72.62
17785;BME280;9016;53.582;10.062;2023-05-24T08:11:59;102017.28;;;15.42;72.86
17785;BME280;9016;53.582;10.062;2023-05-24T08:14:27;102006.47;;;15.44;72.49
17785;BME280;9016;53.582;10.062;2023-05-24T08:16:55;102006.75;;;15.53;72.47
17785;BME280;9016;53.582;10.062;2023-05-24T08:19:24;102014.19;;;15.64;72.21
17785;BME280;9016;53.582;10.062;2023-05-24T08:21:54;102010.81;;;15.60;72.19
17785;BME280;9016;53.582;10.062;2023-05-24T08:24:22;102010.47;;;15.80;71.40
17785;BME280;9016;53.582;10.062;2023-05-24T08:26:50;102010.94;;;15.87;71.21
17785;BME280;9016;53.582;10.062;2023-05-24T08:29:19;102024.16;;;15.90;70.01
17785;BME280;9016;53.582;10.062;2023-05-24T08:31:47;102019.00;;;15.87;69.84
17785;BME280;9016;53.582;10.062;2023-05-24T08:34:15;102020.53;;;15.77;69.42
17785;BME280;9016;53.582;10.062;2023-05-24T08:36:44;102021.16;;;15.66;69.83
17785;BME280;9016;53.582;10.062;2023-05-24T08:39:13;102023.97;;;15.65;69.84
17785;BME280;9016;53.582;10.062;2023-05-24T08:41:41;102015.22;;;15.61;70.79
17785;BME280;9016;53.582;10.062;2023-05-24T08:44:20;102020.13;;;15.83;70.41
17785;BME280;9016;53.582;10.062;2023-05-24T08:46:52;102018.63;;;15.93;69.39
17785;BME280;9016;53.582;10.062;2023-05-24T08:49:20;102020.72;;;16.02;69.50
17785;BME280;9016;53.582;10.062;2023-05-24T08:51:50;102029.69;;;16.03;68.22
17785;BME280;9016;53.582;10.062;2023-05-24T08:54:19;102037.44;;;16.07;67.68
17785;BME280;9016;53.582;10.062;2023-05-24T08:56:47;102032.22;;;15.90;68.14
17785;BME280;9016;53.582;10.062;2023-05-24T08:59:16;102035.44;;;15.97;68.83
17785;BME280;9016;53.582;10.062;2023-05-24T09:01:46;102039.16;;;16.22;67.89
17785;BME280;9016;53.582;10.062;2023-05-24T09:04:20;102045.69;;;16.74;66.34
17785;BME280;9016;53.582;10.062;2023-05-24T09:06:50;102028.53;;;17.55;62.58
17785;BME280;9016;53.582;10.062;2023-05-24T09:09:20;102033.19;;;18.16;59.12
17785;BME280;9016;53.582;10.062;2023-05-24T09:11:50;102039.53;;;18.15;58.76
17785;BME280;9016;53.582;10.062;2023-05-24T09:14:20;102038.53;;;18.54;58.04
17785;BME280;9016;53.582;10.062;2023-05-24T09:16:48;102030.94;;;18.71;57.11
17785;BME280;9016;53.582;10.062;2023-05-24T09:19:18;102034.13;;;18.40;55.85
17785;BME280;9016;53.582;10.062;2023-05-24T09:21:47;102027.34;;;18.22;55.48
17785;BME280;9016;53.582;10.062;2023-05-24T09:24:17;102038.03;;;17.86;55.98
17785;BME280;9016;53.582;10.062;2023-05-24T09:26:47;102046.44;;;18.19;56.35
17785;BME280;9016;53.582;10.062;2023-05-24T09:29:21;102038.44;;;18.30;53.87
17785;BME280;9016;53.582;10.062;2023-05-24T09:31:54;102041.91;;;18.20;55.13
17785;BME280;9016;53.582;10.062;2023-05-24T09:34:22;102035.41;;;18.35;54.60
17785;BME280;9016;53.582;10.062;2023-05-24T09:36:51;102044.06;;;18.27;52.92
17785;BME280;9016;53.582;10.062;2023-05-24T09:39:21;102044.34;;;18.35;54.02
17785;BME280;9016;53.582;10.062;2023-05-24T09:41:51;102052.28;;;17.88;53.98
17785;BME280;9016;53.582;10.062;2023-05-24T09:44:23;102055.56;;;17.27;56.65
17785;BME280;9016;53.582;10.062;2023-05-24T09:46:52;102047.63;;;17.38;56.32
17785;BME280;9016;53.582;10.062;2023-05-24T09:49:21;102052.56;;;17.71;57.62
17785;BME280;9016;53.582;10.062;2023-05-24T09:51:51;102049.03;;;17.70;55.13
17785;BME280;9016;53.582;10.062;2023-05-24T09:54:20;102053.56;;;17.95;55.58
17785;BME280;9016;53.582;10.062;2023-05-24T09:56:50;102056.69;;;18.14;54.66
17785;BME280;9016;53.582;10.062;2023-05-24T09:59:18;102056.47;;;18.17;53.97
17785;BME280;9016;53.582;10.062;2023-05-24T10:01:46;102046.66;;;18.29;54.00
17785;BME280;9016;53.582;10.062;2023-05-24T10:04:31;102053.81;;;18.42;52.47
17785;BME280;9016;53.582;10.062;2023-05-24T10:06:59;102066.06;;;18.46;54.30
17785;BME280;9016;53.582;10.062;2023-05-24T10:09:30;102062.41;;;18.35;54.14
17785;BME280;9016;53.582;10.062;2023-05-24T10:12:01;102063.38;;;18.34;54.41
17785;BME280;9016;53.582;10.062;2023-05-24T10:14:31;102064.66;;;18.28;54.40
17785;BME280;9016;53.582;10.062;2023-05-24T10:17:01;102061.66;;;18.08;55.09
17785;BME280;9016;53.582;10.062;2023-05-24T10:19:31;102060.81;;;17.95;55.48
17785;BME280;9016;53.582;10.062;2023-05-24T10:22:00;102066.19;;;17.82;55.54
17785;BME280;9016;53.582;10.062;2023-05-24T10:24:34;102067.81;;;17.85;55.38
17785;BME280;9016;53.582;10.062;2023-05-24T10:27:07;102060.34;;;18.13;54.80
17785;BME280;9016;53.582;10.062;2023-05-24T10:29:43;102049.44;;;18.40;54.37
17785;BME280;9016;53.582;10.062;2023-05-24T10:32:18;102059.13;;;18.67;53.92
17785;BME280;9016;53.582;10.062;2023-05-24T10:34:47;102069.41;;;18.99;53.39
17785;BME280;9016;53.582;10.062;2023-05-24T10:37:17;102068.97;;;19.05;52.06
17785;BME280;9016;53.582;10.062;2023-05-24T10:39:46;102070.78;;;19.04;51.69
17785;BME280;9016;53.582;10.062;2023-05-24T10:42:14;102074.19;;;19.42;51.98
17785;BME280;9016;53.582;10.062;2023-05-24T10:44:43;102072.09;;;19.69;51.17
17785;BME280;9016;53.582;10.062;2023-05-24T10:47:13;102060.97;;;20.07;50.81
17785;BME280;9016;53.582;10.062;2023-05-24T10:49:49;102069.66;;;20.23;48.93
17785;BME280;9016;53.582;10.062;2023-05-24T10:52:18;102062.19;;;20.03;50.12
17785;BME280;9016;53.582;10.062;2023-05-24T10:55:05;102061.41;;;19.68;49.32
17785;BME280;9016;53.582;10.062;2023-05-24T10:57:36;102068.84;;;19.99;50.41
17785;BME280;9016;53.582;10.062;2023-05-24T11:00:26;102070.56;;;20.00;48.31
17785;BME280;9016;53.582;10.062;2023-05-24T11:03:01;102060.22;;;20.05;49.02
17785;BME280;9016;53.582;10.062;2023-05-24T11:05:34;102071.41;;;19.90;48.74
17785;BME280;9016;53.582;10.062;2023-05-24T11:08:05;102068.13;;;19.51;49.05
17785;BME280;9016;53.582;10.062;2023-05-24T11:10:41;102063.53;;;19.28;50.79
17785;BME280;9016;53.582;10.062;2023-05-24T11:13:09;102060.59;;;19.08;52.09
17785;BME280;9016;53.582;10.062;2023-05-24T11:15:38;102066.13;;;19.06;52.65
17785;BME280;9016;53.582;10.062;2023-05-24T11:18:13;102061.41;;;18.73;51.77
17785;BME280;9016;53.582;10.062;2023-05-24T11:20:42;102063.53;;;18.68;52.47
17785;BME280;9016;53.582;10.062;2023-05-24T11:23:14;102064.84;;;18.75;52.46
17785;BME280;9016;53.582;10.062;2023-05-24T11:25:45;102070.22;;;18.88;51.38
17785;BME280;9016;53.582;10.062;2023-05-24T11:28:14;102066.25;;;19.05;51.48
17785;BME280;9016;53.582;10.062;2023-05-24T11:30:46;102062.75;;;19.15;50.79
17785;BME280;9016;53.582;10.062;2023-05-24T11:33:15;102066.19;;;19.17;49.95
17785;BME280;9016;53.582;10.062;2023-05-24T11:35:56;102061.38;;;19.33;49.50
17785;BME280;9016;53.582;10.062;2023-05-24T11:38:26;102060.72;;;19.53;50.28
17785;BME280;9016;53.582;10.062;2023-05-24T11:41:04;102068.81;;;18.83;50.98
17785;BME280;9016;53.582;10.062;2023-05-24T11:43:33;102069.00;;;18.92;51.09
17785;BME280;9016;53.582;10.062;2023-05-24T11:46:02;102071.72;;;19.39;49.47
17785;BME280;9016;53.582;10.062;2023-05-24T11:48:30;102069.78;;;19.76;49.17
17785;BME280;9016;53.582;10.062;2023-05-24T11:50:58;102072.81;;;19.60;48.29
17785;BME280;9016;53.582;10.062;2023-05-24T11:53:30;102069.38;;;19.58;49.63
17785;BME280;9016;53.582;10.062;2023-05-24T11:55:58;102069.78;;;19.76;49.34
17785;BME280;9016;53.582;10.062;2023-05-24T11:58:34;102076.09;;;19.99;48.93
17785;BME280;9016;53.582;10.062;2023-05-24T12:01:22;102072.66;;;19.97;50.39
17785;BME280;9016;53.582;10.062;2023-05-24T12:03:50;102073.28;;;20.00;49.62
17785;BME280;9016;53.582;10.062;2023-05-24T12:06:19;102076.44;;;19.94;49.64
17785;BME280;9016;53.582;10.062;2023-05-24T12:08:48;102087.66;;;19.90;47.78
17785;BME280;9016;53.582;10.062;2023-05-24T12:11:16;102084.81;;;19.91;47.65
17785;BME280;9016;53.582;10.062;2023-05-24T12:13:47;102080.00;;;19.84;45.91
17785;BME280;9016;53.582;10.062;2023-05-24T12:16:15;102087.06;;;19.97;45.75
17785;BME280;9016;53.582;10.062;2023-05-24T12:18:43;102093.16;;;20.23;46.54
17785;BME280;9016;53.582;10.062;2023-05-24T12:21:29;102090.06;;;20.49;45.49
17785;BME280;9016;53.582;10.062;2023-05-24T12:24:03;102093.53;;;20.51;46.14
17785;BME280;9016;53.582;10.062;2023-05-24T12:26:36;102091.34;;;20.45;46.54
17785;BME280;9016;53.582;10.062;2023-05-24T12:29:05;102093.28;;;20.43;46.74
17785;BME280;9016;53.582;10.062;2023-05-24T12:31:34;102093.66;;;20.28;47.24
17785;BME280;9016;53.582;10.062;2023-05-24T12:34:03;102087.88;;;19.98;46.75
17785;BME280;9016;53.582;10.062;2023-05-24T12:36:33;102095.50;;;19.93;47.52
17785;BME280;9016;53.582;10.062;2023-05-24T12:39:18;102099.31;;;19.79;47.71
17785;BME280;9016;53.582;10.062;2023-05-24T12:41:49;102093.81;;;19.57;48.20
17785;BME280;9016;53.582;10.062;2023-05-24T12:44:23;102100.72;;;19.37;48.40
17785;BME280;9016;53.582;10.062;2023-05-24T12:46:52;102106.38;;;19.34;49.30
17785;BME280;9016;53.582;10.062;2023-05-24T12:49:25;102109.94;;;19.35;49.71
17785;BME280;9016;53.582;10.062;2023-05-24T12:51:54;102111.53;;;19.37;49.12
17785;BME280;9016;53.582;10.062;2023-05-24T12:54:24;102109.69;;;19.38;49.73
17785;BME280;9016;53.582;10.062;2023-05-24T12:56:53;102103.16;;;19.53;49.11
17785;BME280;9016;53.582;10.062;2023-05-24T12:59:25;102103.56;;;19.70;48.84
17785;BME280;9016;53.582;10.062;2023-05-24T13:01:54;102095.63;;;19.91;49.44
17785;BME280;9016;53.582;10.062;2023-05-24T13:04:23;102102.78;;;20.03;50.11